sensor_id;sensor_type;location;lat;lon;timestamp;P1;durP1;ratioP1;P2;durP2;ratioP2
42668;SDS011;29384;42.028;21.388;2023-02-08T00:03:34;56.53;;;20.23;;
42668;SDS011;29384;42.028;21.388;2023-02-08T00:05:59;47.70;;;20.20;;
42668;SDS011;29384;42.028;21.388;2023-02-08T00:08:24;53.50;;;22.23;;
42668;SDS011;29384;42.028;21.388;2023-02-08T00:10:50;54.00;;;22.53;;
42668;SDS011;29384;42.028;21.388;2023-02-08T00:13:15;46.63;;;21.40;;
42668;SDS011;29384;42.028;21.388;2023-02-08T00:18:43;61.33;;;26.80;;
42668;SDS011;29384;42.028;21.388;2023-02-08T00:21:12;82.73;;;31.90;;
42668;SDS011;29384;42.028;21.388;2023-02-08T00:23:38;93.73;;;34.03;;
42668;SDS011;29384;42.028;21.388;2023-02-08T00:26:03;103.87;;;38.87;;
42668;SDS011;29384;42.028;21.388;2023-02-08T00:28:29;86.33;;;34.43;;
42668;SDS011;29384;42.028;21.388;2023-02-08T00:33:57;64.83;;;27.73;;
42668;SDS011;29384;42.028;21.388;2023-02-08T00:36:22;66.90;;;27.70;;
42668;SDS011;29384;42.028;21.388;2023-02-08T00:38:48;62.57;;;27.90;;
42668;SDS011;29384;42.028;21.388;2023-02-08T00:41:13;57.90;;;23.43;;
42668;SDS011;29384;42.028;21.388;2023-02-08T00:43:38;53.97;;;23.13;;
42668;SDS011;29384;42.028;21.388;2023-02-08T00:49:07;55.33;;;23.37;;
42668;SDS011;29384;42.028;21.388;2023-02-08T00:51:32;51.17;;;23.63;;
42668;SDS011;29384;42.028;21.388;2023-02-08T00:53:58;58.90;;;25.27;;
42668;SDS011;29384;42.028;21.388;2023-02-08T00:56:23;61.83;;;25.50;;
42668;SDS011;29384;42.028;21.388;2023-02-08T00:58:48;62.57;;;25.77;;
42668;SDS011;29384;42.028;21.388;2023-02-08T01:01:14;66.27;;;26.00;;
42668;SDS011;29384;42.028;21.388;2023-02-08T01:03:39;52.20;;;23.70;;
42668;SDS011;29384;42.028;21.388;2023-02-08T01:06:06;54.77;;;25.00;;
42668;SDS011;29384;42.028;21.388;2023-02-08T01:08:31;53.90;;;23.83;;
42668;SDS011;29384;42.028;21.388;2023-02-08T01:13:31;52.93;;;23.03;;
42668;SDS011;29384;42.028;21.388;2023-02-08T01:19:00;56.37;;;25.47;;
42668;SDS011;29384;42.028;21.388;2023-02-08T01:21:27;55.63;;;22.37;;
42668;SDS011;29384;42.028;21.388;2023-02-08T01:23:52;51.83;;;23.80;;
42668;SDS011;29384;42.028;21.388;2023-02-08T01:26:18;51.43;;;21.20;;
42668;SDS011;29384;42.028;21.388;2023-02-08T01:28:44;57.47;;;25.70;;
42668;SDS011;29384;42.028;21.388;2023-02-08T01:34:12;56.57;;;25.13;;
42668;SDS011;29384;42.028;21.388;2023-02-08T01:36:38;53.97;;;24.50;;
42668;SDS011;29384;42.028;21.388;2023-02-08T01:39:04;56.63;;;24.87;;
42668;SDS011;29384;42.028;21.388;2023-02-08T01:41:32;54.27;;;23.03;;
42668;SDS011;29384;42.028;21.388;2023-02-08T01:50:03;48.63;;;22.67;;
42668;SDS011;29384;42.028;21.388;2023-02-08T01:52:28;49.93;;;22.33;;
42668;SDS011;29384;42.028;21.388;2023-02-08T01:55:14;46.83;;;21.60;;
42668;SDS011;29384;42.028;21.388;2023-02-08T01:57:40;48.77;;;21.60;;
42668;SDS011;29384;42.028;21.388;2023-02-08T02:00:07;45.03;;;20.97;;
42668;SDS011;29384;42.028;21.388;2023-02-08T02:02:34;56.97;;;22.27;;
42668;SDS011;29384;42.028;21.388;2023-02-08T02:05:00;49.93;;;23.10;;
42668;SDS011;29384;42.028;21.388;2023-02-08T02:07:25;44.27;;;20.20;;
42668;SDS011;29384;42.028;21.388;2023-02-08T02:09:55;38.27;;;19.00;;
42668;SDS011;29384;42.028;21.388;2023-02-08T02:12:21;37.50;;;17.80;;
42668;SDS011;29384;42.028;21.388;2023-02-08T02:14:48;35.57;;;19.30;;
42668;SDS011;29384;42.028;21.388;2023-02-08T02:17:13;35.53;;;17.87;;
42668;SDS011;29384;42.028;21.388;2023-02-08T02:29:47;32.40;;;15.73;;
42668;SDS011;29384;42.028;21.388;2023-02-08T02:32:21;34.33;;;16.37;;
42668;SDS011;29384;42.028;21.388;2023-02-08T02:35:03;36.87;;;17.53;;
42668;SDS011;29384;42.028;21.388;2023-02-08T02:42:39;35.10;;;16.13;;
42668;SDS011;29384;42.028;21.388;2023-02-08T02:50:41;33.87;;;15.33;;
42668;SDS011;29384;42.028;21.388;2023-02-08T02:53:19;27.63;;;13.53;;
42668;SDS011;29384;42.028;21.388;2023-02-08T02:55:49;33.33;;;16.53;;
42668;SDS011;29384;42.028;21.388;2023-02-08T02:58:17;34.50;;;14.50;;
42668;SDS011;29384;42.028;21.388;2023-02-08T03:00:43;28.03;;;13.20;;
42668;SDS011;29384;42.028;21.388;2023-02-08T03:03:16;37.70;;;13.30;;
42668;SDS011;29384;42.028;21.388;2023-02-08T03:05:45;28.70;;;11.77;;
42668;SDS011;29384;42.028;21.388;2023-02-08T03:13:31;23.60;;;12.33;;
42668;SDS011;29384;42.028;21.388;2023-02-08T03:18:35;42.73;;;16.90;;
42668;SDS011;29384;42.028;21.388;2023-02-08T03:23:54;34.13;;;15.17;;
42668;SDS011;29384;42.028;21.388;2023-02-08T03:26:44;35.63;;;15.27;;
42668;SDS011;29384;42.028;21.388;2023-02-08T03:31:38;39.97;;;16.70;;
42668;SDS011;29384;42.028;21.388;2023-02-08T03:36:56;32.97;;;17.57;;
42668;SDS011;29384;42.028;21.388;2023-02-08T03:39:24;43.50;;;18.92;;
42668;SDS011;29384;42.028;21.388;2023-02-08T03:41:51;38.47;;;18.13;;
42668;SDS011;29384;42.028;21.388;2023-02-08T03:46:47;41.30;;;19.63;;
42668;SDS011;29384;42.028;21.388;2023-02-08T03:49:16;37.00;;;17.40;;
42668;SDS011;29384;42.028;21.388;2023-02-08T03:51:43;43.50;;;20.07;;
42668;SDS011;29384;42.028;21.388;2023-02-08T03:54:12;39.73;;;20.17;;
42668;SDS011;29384;42.028;21.388;2023-02-08T03:56:42;49.90;;;22.00;;
42668;SDS011;29384;42.028;21.388;2023-02-08T03:59:11;41.77;;;21.23;;
42668;SDS011;29384;42.028;21.388;2023-02-08T04:01:42;35.87;;;18.50;;
42668;SDS011;29384;42.028;21.388;2023-02-08T04:04:08;30.33;;;13.67;;
42668;SDS011;29384;42.028;21.388;2023-02-08T04:06:34;25.40;;;12.70;;
42668;SDS011;29384;42.028;21.388;2023-02-08T04:08:59;22.63;;;13.53;;
42668;SDS011;29384;42.028;21.388;2023-02-08T04:11:24;28.83;;;15.20;;
42668;SDS011;29384;42.028;21.388;2023-02-08T04:13:50;44.97;;;20.30;;
42668;SDS011;29384;42.028;21.388;2023-02-08T04:16:15;51.83;;;23.20;;
42668;SDS011;29384;42.028;21.388;2023-02-08T04:18:40;41.43;;;21.87;;
42668;SDS011;29384;42.028;21.388;2023-02-08T04:21:06;33.00;;;16.73;;
42668;SDS011;29384;42.028;21.388;2023-02-08T04:23:31;26.60;;;13.10;;
42668;SDS011;29384;42.028;21.388;2023-02-08T04:25:56;36.27;;;16.50;;
42668;SDS011;29384;42.028;21.388;2023-02-08T04:28:22;34.60;;;16.53;;
42668;SDS011;29384;42.028;21.388;2023-02-08T04:30:47;33.00;;;17.17;;
42668;SDS011;29384;42.028;21.388;2023-02-08T04:33:12;38.37;;;17.00;;
42668;SDS011;29384;42.028;21.388;2023-02-08T04:35:39;30.50;;;16.00;;
42668;SDS011;29384;42.028;21.388;2023-02-08T04:38:04;30.10;;;15.90;;
42668;SDS011;29384;42.028;21.388;2023-02-08T04:40:30;37.50;;;16.83;;
42668;SDS011;29384;42.028;21.388;2023-02-08T04:42:55;29.30;;;15.10;;
42668;SDS011;29384;42.028;21.388;2023-02-08T04:45:21;33.83;;;15.67;;
42668;SDS011;29384;42.028;21.388;2023-02-08T04:47:46;36.30;;;16.10;;
42668;SDS011;29384;42.028;21.388;2023-02-08T04:50:11;26.10;;;13.73;;
42668;SDS011;29384;42.028;21.388;2023-02-08T04:52:37;26.47;;;14.30;;
42668;SDS011;29384;42.028;21.388;2023-02-08T04:55:02;35.00;;;14.73;;
42668;SDS011;29384;42.028;21.388;2023-02-08T04:57:27;29.23;;;14.27;;
42668;SDS011;29384;42.028;21.388;2023-02-08T04:59:52;35.27;;;14.50;;
42668;SDS011;29384;42.028;21.388;2023-02-08T05:05:22;35.90;;;17.03;;
42668;SDS011;29384;42.028;21.388;2023-02-08T05:07:47;41.57;;;17.60;;
42668;SDS011;29384;42.028;21.388;2023-02-08T05:10:13;38.47;;;17.93;;
42668;SDS011;29384;42.028;21.388;2023-02-08T05:12:38;34.57;;;18.57;;
42668;SDS011;29384;42.028;21.388;2023-02-08T05:15:03;39.17;;;17.57;;
42668;SDS011;29384;42.028;21.388;2023-02-08T05:20:31;34.30;;;14.87;;
42668;SDS011;29384;42.028;21.388;2023-02-08T05:22:57;36.63;;;16.33;;
42668;SDS011;29384;42.028;21.388;2023-02-08T05:25:23;38.23;;;15.97;;
42668;SDS011;29384;42.028;21.388;2023-02-08T05:27:48;28.77;;;15.93;;
42668;SDS011;29384;42.028;21.388;2023-02-08T05:30:13;29.03;;;14.63;;
42668;SDS011;29384;42.028;21.388;2023-02-08T05:35:43;32.70;;;15.57;;
42668;SDS011;29384;42.028;21.388;2023-02-08T05:38:08;29.90;;;15.73;;
42668;SDS011;29384;42.028;21.388;2023-02-08T05:40:34;31.13;;;13.97;;
42668;SDS011;29384;42.028;21.388;2023-02-08T05:43:00;27.47;;;13.03;;
42668;SDS011;29384;42.028;21.388;2023-02-08T05:45:25;30.27;;;12.93;;
42668;SDS011;29384;42.028;21.388;2023-02-08T05:50:53;27.13;;;12.67;;
42668;SDS011;29384;42.028;21.388;2023-02-08T05:53:19;26.00;;;13.00;;
42668;SDS011;29384;42.028;21.388;2023-02-08T05:55:44;33.10;;;14.37;;
42668;SDS011;29384;42.028;21.388;2023-02-08T05:58:10;27.73;;;14.03;;
42668;SDS011;29384;42.028;21.388;2023-02-08T06:00:35;31.23;;;15.80;;
42668;SDS011;29384;42.028;21.388;2023-02-08T06:06:04;29.93;;;15.40;;
42668;SDS011;29384;42.028;21.388;2023-02-08T06:08:29;41.13;;;16.10;;
42668;SDS011;29384;42.028;21.388;2023-02-08T06:10:55;30.33;;;15.10;;
42668;SDS011;29384;42.028;21.388;2023-02-08T06:13:20;32.20;;;16.43;;
42668;SDS011;29384;42.028;21.388;2023-02-08T06:15:45;35.27;;;16.93;;
42668;SDS011;29384;42.028;21.388;2023-02-08T06:21:13;34.37;;;18.53;;
42668;SDS011;29384;42.028;21.388;2023-02-08T06:23:39;39.43;;;18.70;;
42668;SDS011;29384;42.028;21.388;2023-02-08T06:26:05;45.37;;;19.60;;
42668;SDS011;29384;42.028;21.388;2023-02-08T06:28:30;42.93;;;20.03;;
42668;SDS011;29384;42.028;21.388;2023-02-08T06:30:55;49.40;;;21.67;;
42668;SDS011;29384;42.028;21.388;2023-02-08T06:33:21;38.43;;;18.47;;
42668;SDS011;29384;42.028;21.388;2023-02-08T06:35:50;36.97;;;17.53;;
42668;SDS011;29384;42.028;21.388;2023-02-08T06:38:16;41.77;;;18.23;;
42668;SDS011;29384;42.028;21.388;2023-02-08T06:40:41;29.97;;;16.07;;
42668;SDS011;29384;42.028;21.388;2023-02-08T06:43:06;38.50;;;18.37;;
42668;SDS011;29384;42.028;21.388;2023-02-08T06:45:32;37.50;;;18.17;;
42668;SDS011;29384;42.028;21.388;2023-02-08T06:51:00;39.27;;;19.40;;
42668;SDS011;29384;42.028;21.388;2023-02-08T06:53:25;35.73;;;16.57;;
42668;SDS011;29384;42.028;21.388;2023-02-08T06:55:50;39.07;;;17.00;;
42668;SDS011;29384;42.028;21.388;2023-02-08T06:58:16;32.03;;;15.90;;
42668;SDS011;29384;42.028;21.388;2023-02-08T07:00:41;39.53;;;17.50;;
42668;SDS011;29384;42.028;21.388;2023-02-08T07:06:12;53.07;;;18.60;;
42668;SDS011;29384;42.028;21.388;2023-02-08T07:08:37;38.53;;;17.43;;
42668;SDS011;29384;42.028;21.388;2023-02-08T07:11:07;33.80;;;15.30;;
42668;SDS011;29384;42.028;21.388;2023-02-08T07:13:32;25.63;;;14.00;;
42668;SDS011;29384;42.028;21.388;2023-02-08T07:15:57;33.43;;;15.10;;
42668;SDS011;29384;42.028;21.388;2023-02-08T07:21:25;34.97;;;14.37;;
42668;SDS011;29384;42.028;21.388;2023-02-08T07:23:51;34.37;;;17.13;;
42668;SDS011;29384;42.028;21.388;2023-02-08T07:26:16;44.17;;;19.60;;
42668;SDS011;29384;42.028;21.388;2023-02-08T07:28:42;35.40;;;17.47;;
42668;SDS011;29384;42.028;21.388;2023-02-08T07:31:11;26.33;;;13.73;;
42668;SDS011;29384;42.028;21.388;2023-02-08T07:36:39;26.70;;;13.00;;
42668;SDS011;29384;42.028;21.388;2023-02-08T07:39:04;24.63;;;13.47;;
42668;SDS011;29384;42.028;21.388;2023-02-08T07:41:30;22.13;;;12.80;;
42668;SDS011;29384;42.028;21.388;2023-02-08T07:43:58;22.63;;;12.53;;
42668;SDS011;29384;42.028;21.388;2023-02-08T07:46:23;26.60;;;12.67;;
42668;SDS011;29384;42.028;21.388;2023-02-08T07:51:51;22.97;;;11.43;;
42668;SDS011;29384;42.028;21.388;2023-02-08T07:54:17;23.93;;;10.87;;
42668;SDS011;29384;42.028;21.388;2023-02-08T07:56:42;23.87;;;11.53;;
42668;SDS011;29384;42.028;21.388;2023-02-08T07:59:07;16.60;;;9.83;;
42668;SDS011;29384;42.028;21.388;2023-02-08T08:01:33;25.70;;;11.10;;
42668;SDS011;29384;42.028;21.388;2023-02-08T08:07:01;24.00;;;10.43;;
42668;SDS011;29384;42.028;21.388;2023-02-08T08:09:26;19.43;;;10.57;;
42668;SDS011;29384;42.028;21.388;2023-02-08T08:11:51;22.90;;;10.87;;
42668;SDS011;29384;42.028;21.388;2023-02-08T08:14:16;23.67;;;11.70;;
42668;SDS011;29384;42.028;21.388;2023-02-08T08:16:42;20.30;;;10.70;;
42668;SDS011;29384;42.028;21.388;2023-02-08T08:19:07;28.97;;;11.57;;
42668;SDS011;29384;42.028;21.388;2023-02-08T08:21:33;23.73;;;12.13;;
42668;SDS011;29384;42.028;21.388;2023-02-08T08:23:58;24.50;;;11.60;;
42668;SDS011;29384;42.028;21.388;2023-02-08T08:26:23;24.50;;;12.37;;
42668;SDS011;29384;42.028;21.388;2023-02-08T08:28:49;28.13;;;13.43;;
42668;SDS011;29384;42.028;21.388;2023-02-08T08:31:18;25.10;;;13.63;;
42668;SDS011;29384;42.028;21.388;2023-02-08T08:36:46;23.13;;;11.57;;
42668;SDS011;29384;42.028;21.388;2023-02-08T08:39:11;24.93;;;12.27;;
42668;SDS011;29384;42.028;21.388;2023-02-08T08:41:37;20.90;;;11.23;;
42668;SDS011;29384;42.028;21.388;2023-02-08T08:44:02;25.87;;;12.30;;
42668;SDS011;29384;42.028;21.388;2023-02-08T08:46:27;23.30;;;10.73;;
42668;SDS011;29384;42.028;21.388;2023-02-08T08:51:55;22.10;;;11.33;;
42668;SDS011;29384;42.028;21.388;2023-02-08T08:54:21;24.30;;;11.70;;
42668;SDS011;29384;42.028;21.388;2023-02-08T08:56:46;26.63;;;11.70;;
42668;SDS011;29384;42.028;21.388;2023-02-08T08:59:12;19.70;;;10.57;;
42668;SDS011;29384;42.028;21.388;2023-02-08T09:01:37;23.80;;;12.00;;
42668;SDS011;29384;42.028;21.388;2023-02-08T09:07:06;18.27;;;10.37;;
42668;SDS011;29384;42.028;21.388;2023-02-08T09:09:31;25.77;;;11.20;;
42668;SDS011;29384;42.028;21.388;2023-02-08T09:11:57;17.97;;;10.50;;
42668;SDS011;29384;42.028;21.388;2023-02-08T09:14:22;23.13;;;11.27;;
42668;SDS011;29384;42.028;21.388;2023-02-08T09:16:47;20.67;;;11.80;;
42668;SDS011;29384;42.028;21.388;2023-02-08T09:22:16;26.90;;;13.10;;
42668;SDS011;29384;42.028;21.388;2023-02-08T09:24:41;23.70;;;12.70;;
42668;SDS011;29384;42.028;21.388;2023-02-08T09:27:06;25.07;;;12.60;;
42668;SDS011;29384;42.028;21.388;2023-02-08T09:29:32;23.77;;;12.37;;
42668;SDS011;29384;42.028;21.388;2023-02-08T09:31:57;23.83;;;12.43;;
42668;SDS011;29384;42.028;21.388;2023-02-08T09:37:26;23.40;;;11.27;;
42668;SDS011;29384;42.028;21.388;2023-02-08T09:39:51;20.60;;;10.30;;
42668;SDS011;29384;42.028;21.388;2023-02-08T09:47:29;15.27;;;8.83;;
42668;SDS011;29384;42.028;21.388;2023-02-08T09:49:58;14.70;;;8.07;;
42668;SDS011;29384;42.028;21.388;2023-02-08T09:52:33;12.20;;;7.50;;
42668;SDS011;29384;42.028;21.388;2023-02-08T09:55:00;14.55;;;9.32;;
42668;SDS011;29384;42.028;21.388;2023-02-08T09:57:29;14.25;;;7.75;;
42668;SDS011;29384;42.028;21.388;2023-02-08T09:59:57;15.95;;;8.02;;
42668;SDS011;29384;42.028;21.388;2023-02-08T10:02:25;20.95;;;9.77;;
42668;SDS011;29384;42.028;21.388;2023-02-08T10:07:29;22.50;;;11.63;;
42668;SDS011;29384;42.028;21.388;2023-02-08T10:09:55;18.20;;;9.98;;
42668;SDS011;29384;42.028;21.388;2023-02-08T10:20:12;20.15;;;9.35;;
42668;SDS011;29384;42.028;21.388;2023-02-08T10:30:35;16.40;;;10.32;;
42668;SDS011;29384;42.028;21.388;2023-02-08T10:33:06;16.23;;;8.60;;
42668;SDS011;29384;42.028;21.388;2023-02-08T10:35:36;24.95;;;10.23;;
42668;SDS011;29384;42.028;21.388;2023-02-08T10:40:46;16.13;;;8.00;;
42668;SDS011;29384;42.028;21.388;2023-02-08T10:48:21;15.20;;;7.55;;
42668;SDS011;29384;42.028;21.388;2023-02-08T10:50:51;14.90;;;8.17;;
42668;SDS011;29384;42.028;21.388;2023-02-08T10:53:17;21.38;;;8.73;;
42668;SDS011;29384;42.028;21.388;2023-02-08T10:55:44;12.90;;;7.78;;
42668;SDS011;29384;42.028;21.388;2023-02-08T10:58:20;12.90;;;6.55;;
42668;SDS011;29384;42.028;21.388;2023-02-08T11:00:46;12.60;;;7.78;;
42668;SDS011;29384;42.028;21.388;2023-02-08T11:03:22;16.25;;;8.20;;
42668;SDS011;29384;42.028;21.388;2023-02-08T11:05:48;15.88;;;8.98;;
42668;SDS011;29384;42.028;21.388;2023-02-08T11:08:15;15.88;;;9.15;;
42668;SDS011;29384;42.028;21.388;2023-02-08T11:13:25;11.90;;;7.00;;
42668;SDS011;29384;42.028;21.388;2023-02-08T11:15:55;11.73;;;6.45;;
42668;SDS011;29384;42.028;21.388;2023-02-08T11:20:47;10.82;;;7.03;;
42668;SDS011;29384;42.028;21.388;2023-02-08T11:23:23;10.10;;;6.57;;
42668;SDS011;29384;42.028;21.388;2023-02-08T11:25:49;13.40;;;7.70;;
42668;SDS011;29384;42.028;21.388;2023-02-08T11:28:22;13.07;;;7.65;;
42668;SDS011;29384;42.028;21.388;2023-02-08T11:30:58;16.30;;;8.07;;
42668;SDS011;29384;42.028;21.388;2023-02-08T11:33:24;10.30;;;6.55;;
42668;SDS011;29384;42.028;21.388;2023-02-08T11:36:01;10.88;;;6.13;;
42668;SDS011;29384;42.028;21.388;2023-02-08T11:38:27;18.65;;;8.27;;
42668;SDS011;29384;42.028;21.388;2023-02-08T11:40:56;12.65;;;7.60;;
42668;SDS011;29384;42.028;21.388;2023-02-08T11:43:27;10.75;;;6.95;;
42668;SDS011;29384;42.028;21.388;2023-02-08T11:45:54;13.00;;;7.50;;
42668;SDS011;29384;42.028;21.388;2023-02-08T11:51:01;10.93;;;6.65;;
42668;SDS011;29384;42.028;21.388;2023-02-08T12:03:27;8.45;;;6.18;;
42668;SDS011;29384;42.028;21.388;2023-02-08T12:08:42;10.95;;;6.75;;
42668;SDS011;29384;42.028;21.388;2023-02-08T12:11:14;13.05;;;7.05;;
42668;SDS011;29384;42.028;21.388;2023-02-08T12:21:14;9.80;;;6.25;;
42668;SDS011;29384;42.028;21.388;2023-02-08T12:23:51;11.85;;;6.80;;
42668;SDS011;29384;42.028;21.388;2023-02-08T12:26:22;9.80;;;5.97;;
42668;SDS011;29384;42.028;21.388;2023-02-08T12:41:43;10.43;;;6.20;;
42668;SDS011;29384;42.028;21.388;2023-02-08T12:54:14;13.05;;;5.68;;
42668;SDS011;29384;42.028;21.388;2023-02-08T12:56:41;10.02;;;5.80;;
42668;SDS011;29384;42.028;21.388;2023-02-08T12:59:11;9.80;;;6.57;;
42668;SDS011;29384;42.028;21.388;2023-02-08T13:01:41;10.85;;;7.28;;
42668;SDS011;29384;42.028;21.388;2023-02-08T13:04:09;11.55;;;6.55;;
42668;SDS011;29384;42.028;21.388;2023-02-08T13:06:57;9.52;;;5.63;;
42668;SDS011;29384;42.028;21.388;2023-02-08T13:09:27;8.82;;;6.07;;
42668;SDS011;29384;42.028;21.388;2023-02-08T13:12:01;8.75;;;6.47;;
42668;SDS011;29384;42.028;21.388;2023-02-08T13:14:32;11.32;;;6.53;;
42668;SDS011;29384;42.028;21.388;2023-02-08T13:17:00;7.47;;;5.07;;
42668;SDS011;29384;42.028;21.388;2023-02-08T13:19:30;9.05;;;4.97;;
42668;SDS011;29384;42.028;21.388;2023-02-08T13:21:56;6.15;;;5.03;;
42668;SDS011;29384;42.028;21.388;2023-02-08T13:24:35;11.95;;;6.00;;
42668;SDS011;29384;42.028;21.388;2023-02-08T13:27:01;7.15;;;4.90;;
42668;SDS011;29384;42.028;21.388;2023-02-08T13:29:29;7.65;;;4.57;;
42668;SDS011;29384;42.028;21.388;2023-02-08T13:31:58;7.43;;;5.07;;
42668;SDS011;29384;42.028;21.388;2023-02-08T13:36:50;6.25;;;4.70;;
42668;SDS011;29384;42.028;21.388;2023-02-08T13:39:36;14.63;;;7.30;;
42668;SDS011;29384;42.028;21.388;2023-02-08T13:42:04;10.32;;;5.68;;
42668;SDS011;29384;42.028;21.388;2023-02-08T13:44:34;15.07;;;8.15;;
42668;SDS011;29384;42.028;21.388;2023-02-08T13:47:00;12.10;;;5.75;;
42668;SDS011;29384;42.028;21.388;2023-02-08T13:52:10;8.82;;;5.80;;
42668;SDS011;29384;42.028;21.388;2023-02-08T13:54:36;5.97;;;4.97;;
42668;SDS011;29384;42.028;21.388;2023-02-08T13:57:01;8.10;;;5.57;;
42668;SDS011;29384;42.028;21.388;2023-02-08T13:59:31;6.30;;;4.88;;
42668;SDS011;29384;42.028;21.388;2023-02-08T14:04:36;7.75;;;5.18;;
42668;SDS011;29384;42.028;21.388;2023-02-08T14:07:06;8.80;;;6.13;;
42668;SDS011;29384;42.028;21.388;2023-02-08T14:12:02;9.32;;;5.25;;
42668;SDS011;29384;42.028;21.388;2023-02-08T14:14:33;10.95;;;5.85;;
42668;SDS011;29384;42.028;21.388;2023-02-08T14:19:43;9.75;;;6.07;;
42668;SDS011;29384;42.028;21.388;2023-02-08T14:24:39;9.68;;;6.95;;
42668;SDS011;29384;42.028;21.388;2023-02-08T14:30:01;10.43;;;6.95;;
42668;SDS011;29384;42.028;21.388;2023-02-08T14:32:28;10.55;;;7.45;;
42668;SDS011;29384;42.028;21.388;2023-02-08T14:37:37;15.73;;;8.15;;
42668;SDS011;29384;42.028;21.388;2023-02-08T14:42:57;12.52;;;7.03;;
42668;SDS011;29384;42.028;21.388;2023-02-08T14:48:02;11.65;;;6.63;;
42668;SDS011;29384;42.028;21.388;2023-02-08T14:50:30;16.23;;;6.95;;
42668;SDS011;29384;42.028;21.388;2023-02-08T14:53:04;14.00;;;7.30;;
42668;SDS011;29384;42.028;21.388;2023-02-08T14:55:36;14.18;;;7.07;;
42668;SDS011;29384;42.028;21.388;2023-02-08T14:58:03;13.02;;;7.93;;
42668;SDS011;29384;42.028;21.388;2023-02-08T15:00:33;13.27;;;8.30;;
42668;SDS011;29384;42.028;21.388;2023-02-08T15:02:59;17.83;;;8.68;;
42668;SDS011;29384;42.028;21.388;2023-02-08T15:05:26;15.63;;;8.18;;
42668;SDS011;29384;42.028;21.388;2023-02-08T15:07:52;19.77;;;9.32;;
42668;SDS011;29384;42.028;21.388;2023-02-08T15:10:20;18.95;;;9.65;;
42668;SDS011;29384;42.028;21.388;2023-02-08T15:12:48;17.58;;;9.27;;
42668;SDS011;29384;42.028;21.388;2023-02-08T15:15:33;21.35;;;11.15;;
42668;SDS011;29384;42.028;21.388;2023-02-08T15:18:00;21.88;;;10.73;;
42668;SDS011;29384;42.028;21.388;2023-02-08T15:20:26;31.35;;;12.98;;
42668;SDS011;29384;42.028;21.388;2023-02-08T15:22:59;33.65;;;14.02;;
42668;SDS011;29384;42.028;21.388;2023-02-08T15:25:29;30.77;;;15.30;;
42668;SDS011;29384;42.028;21.388;2023-02-08T15:27:57;29.50;;;13.45;;
42668;SDS011;29384;42.028;21.388;2023-02-08T15:30:23;28.00;;;11.43;;
42668;SDS011;29384;42.028;21.388;2023-02-08T15:32:48;20.08;;;10.63;;
42668;SDS011;29384;42.028;21.388;2023-02-08T15:35:14;18.90;;;10.13;;
42668;SDS011;29384;42.028;21.388;2023-02-08T15:37:42;18.67;;;9.52;;
42668;SDS011;29384;42.028;21.388;2023-02-08T15:40:20;19.52;;;10.93;;
42668;SDS011;29384;42.028;21.388;2023-02-08T15:42:45;20.33;;;11.00;;
42668;SDS011;29384;42.028;21.388;2023-02-08T15:45:21;24.20;;;11.35;;
42668;SDS011;29384;42.028;21.388;2023-02-08T15:47:47;19.85;;;12.25;;
42668;SDS011;29384;42.028;21.388;2023-02-08T15:50:15;30.75;;;12.80;;
42668;SDS011;29384;42.028;21.388;2023-02-08T15:52:41;31.92;;;13.60;;
42668;SDS011;29384;42.028;21.388;2023-02-08T15:55:07;49.20;;;17.50;;
42668;SDS011;29384;42.028;21.388;2023-02-08T16:00:21;51.05;;;19.33;;
42668;SDS011;29384;42.028;21.388;2023-02-08T16:02:49;47.05;;;18.65;;
42668;SDS011;29384;42.028;21.388;2023-02-08T16:05:34;43.75;;;18.70;;
42668;SDS011;29384;42.028;21.388;2023-02-08T16:08:00;50.55;;;21.60;;
42668;SDS011;29384;42.028;21.388;2023-02-08T16:12:52;40.28;;;20.42;;
42668;SDS011;29384;42.028;21.388;2023-02-08T16:18:02;49.33;;;20.95;;
42668;SDS011;29384;42.028;21.388;2023-02-08T16:20:31;43.55;;;19.55;;
42668;SDS011;29384;42.028;21.388;2023-02-08T16:22:58;50.45;;;21.25;;
42668;SDS011;29384;42.028;21.388;2023-02-08T16:25:34;39.83;;;20.17;;
42668;SDS011;29384;42.028;21.388;2023-02-08T16:28:02;45.10;;;19.17;;
42668;SDS011;29384;42.028;21.388;2023-02-08T16:30:27;40.30;;;18.73;;
42668;SDS011;29384;42.028;21.388;2023-02-08T16:32:53;48.37;;;18.77;;
42668;SDS011;29384;42.028;21.388;2023-02-08T16:35:23;39.93;;;19.60;;
42668;SDS011;29384;42.028;21.388;2023-02-08T16:37:52;40.50;;;20.17;;
42668;SDS011;29384;42.028;21.388;2023-02-08T16:43:34;48.10;;;21.33;;
42668;SDS011;29384;42.028;21.388;2023-02-08T16:48:34;53.87;;;21.37;;
42668;SDS011;29384;42.028;21.388;2023-02-08T16:51:00;54.67;;;21.80;;
42668;SDS011;29384;42.028;21.388;2023-02-08T16:53:29;44.27;;;19.57;;
42668;SDS011;29384;42.028;21.388;2023-02-08T16:55:55;43.60;;;19.03;;
42668;SDS011;29384;42.028;21.388;2023-02-08T16:58:21;38.67;;;18.10;;
42668;SDS011;29384;42.028;21.388;2023-02-08T17:00:46;41.70;;;18.90;;
42668;SDS011;29384;42.028;21.388;2023-02-08T17:03:11;36.33;;;19.30;;
42668;SDS011;29384;42.028;21.388;2023-02-08T17:05:37;36.33;;;17.27;;
42668;SDS011;29384;42.028;21.388;2023-02-08T17:08:03;32.87;;;17.67;;
42668;SDS011;29384;42.028;21.388;2023-02-08T17:10:31;42.13;;;17.30;;
42668;SDS011;29384;42.028;21.388;2023-02-08T17:12:57;34.20;;;15.63;;
42668;SDS011;29384;42.028;21.388;2023-02-08T17:15:22;37.97;;;17.63;;
42668;SDS011;29384;42.028;21.388;2023-02-08T17:17:49;44.00;;;18.77;;
42668;SDS011;29384;42.028;21.388;2023-02-08T17:20:16;41.00;;;18.67;;
42668;SDS011;29384;42.028;21.388;2023-02-08T17:22:42;40.70;;;19.97;;
42668;SDS011;29384;42.028;21.388;2023-02-08T17:25:07;50.97;;;23.70;;
42668;SDS011;29384;42.028;21.388;2023-02-08T17:27:32;38.10;;;19.87;;
42668;SDS011;29384;42.028;21.388;2023-02-08T17:29:58;42.03;;;20.17;;
42668;SDS011;29384;42.028;21.388;2023-02-08T17:32:23;42.43;;;18.63;;
42668;SDS011;29384;42.028;21.388;2023-02-08T17:34:48;40.27;;;17.80;;
42668;SDS011;29384;42.028;21.388;2023-02-08T17:37:13;42.37;;;18.23;;
42668;SDS011;29384;42.028;21.388;2023-02-08T17:39:39;41.03;;;19.10;;
42668;SDS011;29384;42.028;21.388;2023-02-08T17:42:04;46.57;;;18.90;;
42668;SDS011;29384;42.028;21.388;2023-02-08T17:44:29;40.53;;;20.07;;
42668;SDS011;29384;42.028;21.388;2023-02-08T17:46:55;40.77;;;18.73;;
42668;SDS011;29384;42.028;21.388;2023-02-08T17:49:20;39.23;;;18.43;;
42668;SDS011;29384;42.028;21.388;2023-02-08T17:54:48;47.87;;;20.40;;
42668;SDS011;29384;42.028;21.388;2023-02-08T17:57:13;41.80;;;19.00;;
42668;SDS011;29384;42.028;21.388;2023-02-08T17:59:39;48.90;;;20.10;;
42668;SDS011;29384;42.028;21.388;2023-02-08T18:02:05;48.73;;;20.03;;
42668;SDS011;29384;42.028;21.388;2023-02-08T18:04:30;47.77;;;22.70;;
42668;SDS011;29384;42.028;21.388;2023-02-08T18:10:17;67.27;;;28.03;;
42668;SDS011;29384;42.028;21.388;2023-02-08T18:12:43;65.30;;;27.20;;
42668;SDS011;29384;42.028;21.388;2023-02-08T18:15:11;64.73;;;28.10;;
42668;SDS011;29384;42.028;21.388;2023-02-08T18:17:36;52.37;;;22.60;;
42668;SDS011;29384;42.028;21.388;2023-02-08T18:20:02;54.20;;;23.10;;